createdAt,value
2023-06-04T00:00:54.388Z,17.16
2023-06-04T00:02:56.715Z,17.07
2023-06-04T00:04:58.950Z,17.12
2023-06-04T00:07:01.142Z,17.14
2023-06-04T00:09:03.267Z,16.99
2023-06-04T00:11:05.856Z,16.95
2023-06-04T00:13:08.403Z,16.91
2023-06-04T00:15:11.397Z,16.65
2023-06-04T00:17:13.451Z,16.43
2023-06-04T00:19:15.752Z,16.62
2023-06-04T00:21:17.941Z,16.72
2023-06-04T00:23:20.128Z,16.43
2023-06-04T00:25:22.419Z,16.61
2023-06-04T00:27:24.532Z,16.76
2023-06-04T00:29:26.748Z,16.65
2023-06-04T00:31:29.021Z,16.41
2023-06-04T00:33:31.210Z,16.53
2023-06-04T00:35:33.917Z,16.49
2023-06-04T00:37:36.005Z,16.58
2023-06-04T00:39:38.235Z,16.45
2023-06-04T00:41:40.544Z,16.45
2023-06-04T00:43:47.127Z,16.37
2023-06-04T00:45:49.532Z,16.36
2023-06-04T00:47:52.175Z,16.43
2023-06-04T00:49:57.957Z,16.40
2023-06-04T00:52:00.979Z,16.43
2023-06-04T00:54:09.138Z,16.43
2023-06-04T00:56:11.280Z,16.41
2023-06-04T00:58:14.200Z,16.32
2023-06-04T01:00:17.407Z,16.41
2023-06-04T01:02:24.298Z,16.38
2023-06-04T01:04:33.458Z,16.41
2023-06-04T01:06:36.287Z,16.34
2023-06-04T01:08:40.180Z,16.29
2023-06-04T01:10:48.569Z,16.05
2023-06-04T01:12:50.758Z,16.25
2023-06-04T01:14:52.980Z,16.25
2023-06-04T01:17:02.875Z,16.12
2023-06-04T01:19:12.128Z,16.13
2023-06-04T01:21:19.872Z,16.05
2023-06-04T01:23:25.633Z,16.00
2023-06-04T01:25:34.714Z,15.94
2023-06-04T01:27:37.453Z,15.91
2023-06-04T01:29:39.462Z,15.94
2023-06-04T01:31:41.668Z,15.85
2023-06-04T01:33:43.818Z,15.84
2023-06-04T01:35:45.959Z,15.84
2023-06-04T01:37:48.650Z,15.74
2023-06-04T01:39:50.554Z,15.78
2023-06-04T01:41:52.514Z,15.83
2023-06-04T01:43:56.725Z,15.79
2023-06-04T01:45:58.944Z,15.75
2023-06-04T01:48:04.251Z,15.65
2023-06-04T01:50:10.477Z,15.64
2023-06-04T01:52:12.785Z,15.68
2023-06-04T01:54:14.756Z,15.57
2023-06-04T01:56:16.647Z,15.60
2023-06-04T01:58:23.912Z,15.62
2023-06-04T02:00:25.892Z,15.51
2023-06-04T02:02:28.261Z,15.56
2023-06-04T02:04:30.175Z,15.55
2023-06-04T02:06:32.490Z,15.53
2023-06-04T02:08:35.456Z,15.50
2023-06-04T02:10:37.352Z,15.45
2023-06-04T02:12:41.576Z,15.44
2023-06-04T02:14:46.105Z,15.41
2023-06-04T02:16:51.125Z,15.38
2023-06-04T02:18:53.473Z,15.38
2023-06-04T02:20:58.044Z,15.30
2023-06-04T02:23:00.084Z,15.31
2023-06-04T02:25:04.005Z,15.29
2023-06-04T02:27:07.707Z,15.21
2023-06-04T02:29:09.767Z,15.30
2023-06-04T02:31:11.761Z,15.31
2023-06-04T02:33:14.432Z,15.20
2023-06-04T02:35:16.455Z,15.05
2023-06-04T02:37:18.549Z,15.01
2023-06-04T02:39:21.254Z,14.98
2023-06-04T02:41:24.204Z,15.08
2023-06-04T02:43:28.402Z,15.07
2023-06-04T02:45:30.353Z,15.06
2023-06-04T02:47:32.413Z,15.12
2023-06-04T02:49:34.370Z,15.08
2023-06-04T02:51:36.208Z,14.98
2023-06-04T02:53:38.331Z,14.95
2023-06-04T02:55:42.926Z,14.96
2023-06-04T02:57:45.056Z,14.95
2023-06-04T02:59:46.918Z,14.80
2023-06-04T03:01:49.619Z,14.84
2023-06-04T03:03:52.101Z,14.78
2023-06-04T03:05:55.090Z,14.52
2023-06-04T03:07:58.567Z,14.61
2023-06-04T03:10:00.839Z,14.67
2023-06-04T03:12:03.086Z,14.65
2023-06-04T03:14:04.947Z,14.65
2023-06-04T03:16:10.419Z,14.64
2023-06-04T03:18:12.715Z,14.71
2023-06-04T03:20:14.736Z,14.71
2023-06-04T03:22:19.010Z,14.58
2023-06-04T03:24:21.236Z,14.54
2023-06-04T03:26:23.162Z,14.44
2023-06-04T03:28:27.056Z,14.46
2023-06-04T03:30:29.049Z,14.53
2023-06-04T03:32:31.135Z,14.48
2023-06-04T03:34:35.541Z,14.29
2023-06-04T03:36:39.220Z,14.37
2023-06-04T03:38:41.226Z,14.38
2023-06-04T03:40:43.897Z,14.49
2023-06-04T03:42:45.969Z,14.35
2023-06-04T03:44:47.913Z,14.31
2023-06-04T03:46:49.951Z,14.30
2023-06-04T03:48:51.931Z,14.28
2023-06-04T03:50:56.021Z,14.16
2023-06-04T03:52:57.998Z,14.24
2023-06-04T03:55:02.661Z,14.29
2023-06-04T03:57:04.813Z,14.30
2023-06-04T03:59:06.696Z,14.12
2023-06-04T04:01:12.008Z,14.24
2023-06-04T04:03:14.046Z,14.27
2023-06-04T04:05:18.537Z,14.26
2023-06-04T04:07:22.194Z,14.04
2023-06-04T04:09:26.205Z,14.15
2023-06-04T04:11:28.105Z,14.17
2023-06-04T04:13:30.090Z,14.08
2023-06-04T04:15:31.989Z,14.03
2023-06-04T04:17:34.180Z,14.04
2023-06-04T04:19:36.250Z,13.93
2023-06-04T04:21:38.872Z,13.87
2023-06-04T04:23:42.268Z,14.03
2023-06-04T04:25:45.951Z,13.94
2023-06-04T04:27:49.713Z,13.99
2023-06-04T04:29:51.655Z,14.02
2023-06-04T04:31:53.541Z,13.99
2023-06-04T04:33:57.101Z,14.08
2023-06-04T04:36:01.065Z,14.01
2023-06-04T04:38:04.799Z,13.91
2023-06-04T04:40:11.946Z,13.76
2023-06-04T04:42:13.927Z,13.89
2023-06-04T04:44:15.859Z,13.81
2023-06-04T04:46:18.062Z,13.78
2023-06-04T04:48:20.016Z,13.85
2023-06-04T04:50:22.032Z,13.93
2023-06-04T04:52:24.111Z,13.84
2023-06-04T04:54:26.017Z,13.85
2023-06-04T04:56:28.415Z,13.94
2023-06-04T04:58:30.611Z,13.86
2023-06-04T05:00:32.487Z,13.86
2023-06-04T05:02:35.828Z,13.94
2023-06-04T05:04:38.008Z,14.07
2023-06-04T05:06:39.969Z,14.03
2023-06-04T05:08:43.350Z,13.98
2023-06-04T05:10:45.674Z,14.05
2023-06-04T05:12:52.942Z,13.99
2023-06-04T05:14:56.855Z,13.93
2023-06-04T05:16:58.916Z,13.99
2023-06-04T05:19:01.568Z,14.04
2023-06-04T05:21:03.944Z,14.11
2023-06-04T05:23:06.193Z,14.11
2023-06-04T05:25:09.673Z,14.04
2023-06-04T05:27:11.556Z,14.04
2023-06-04T05:29:13.606Z,14.07
2023-06-04T05:31:16.974Z,13.98
2023-06-04T05:33:19.500Z,14.00
2023-06-04T05:35:21.616Z,14.09
2023-06-04T05:37:25.020Z,14.10
2023-06-04T05:39:26.976Z,14.09
2023-06-04T05:41:29.073Z,14.09
2023-06-04T05:43:31.178Z,14.05
2023-06-04T05:45:37.548Z,14.01
2023-06-04T05:47:39.541Z,14.09
2023-06-04T05:49:41.559Z,14.07
2023-06-04T05:51:43.516Z,14.05
2023-06-04T05:53:45.469Z,13.89
2023-06-04T05:55:47.401Z,14.03
2023-06-04T05:57:52.677Z,14.08
2023-06-04T05:59:54.539Z,14.10
2023-06-04T06:01:56.580Z,14.07
2023-06-04T06:03:58.584Z,14.08
2023-06-04T06:06:02.317Z,14.11
2023-06-04T06:08:04.402Z,14.02
2023-06-04T06:10:07.684Z,14.20
2023-06-04T06:12:09.548Z,14.25
2023-06-04T06:14:11.541Z,14.22
2023-06-04T06:16:13.662Z,14.24
2023-06-04T06:18:16.050Z,14.29
2023-06-04T06:20:19.162Z,14.35
2023-06-04T06:22:23.794Z,14.16
2023-06-04T06:24:26.487Z,14.31
2023-06-04T06:26:28.577Z,14.40
2023-06-04T06:28:30.779Z,14.36
2023-06-04T06:30:32.780Z,14.38
2023-06-04T06:32:34.764Z,14.45
2023-06-04T06:34:39.322Z,14.37
2023-06-04T06:36:41.339Z,14.40
2023-06-04T06:38:43.254Z,14.41
2023-06-04T06:40:45.277Z,14.49
2023-06-04T06:42:51.454Z,14.45
2023-06-04T06:44:53.418Z,14.54
2023-06-04T06:46:55.464Z,14.51
2023-06-04T06:48:58.533Z,14.51
2023-06-04T06:51:00.719Z,14.61
2023-06-04T06:53:04.022Z,14.56
2023-06-04T06:55:06.682Z,14.64
2023-06-04T06:57:10.149Z,14.71
2023-06-04T06:59:12.365Z,14.61
2023-06-04T07:01:14.882Z,14.85
2023-06-04T07:03:17.074Z,14.96
2023-06-04T07:05:19.124Z,15.04
2023-06-04T07:07:21.064Z,14.99
2023-06-04T07:09:23.054Z,14.96
2023-06-04T07:11:26.977Z,15.13
2023-06-04T07:13:29.233Z,15.01
2023-06-04T07:15:31.403Z,15.14
2023-06-04T07:17:35.973Z,15.17
2023-06-04T07:19:38.004Z,15.38
2023-06-04T07:21:39.995Z,15.34
2023-06-04T07:23:42.064Z,15.42
2023-06-04T07:25:44.260Z,15.48
2023-06-04T07:27:46.476Z,15.55
2023-06-04T07:29:48.679Z,15.61
2023-06-04T07:31:50.938Z,15.60
2023-06-04T07:33:52.971Z,15.69
2023-06-04T07:35:55.234Z,15.73
2023-06-04T07:37:57.394Z,15.76
2023-06-04T07:39:59.529Z,15.81
2023-06-04T07:42:01.640Z,15.92
2023-06-04T07:44:03.734Z,15.94
2023-06-04T07:46:06.561Z,15.93
2023-06-04T07:48:12.030Z,16.03
2023-06-04T07:50:14.374Z,16.03
2023-06-04T07:52:16.735Z,16.14
2023-06-04T07:54:21.782Z,16.21
2023-06-04T07:56:24.170Z,16.22
2023-06-04T07:58:26.725Z,16.19
2023-06-04T08:00:32.100Z,16.35
2023-06-04T08:02:34.474Z,16.43
2023-06-04T08:04:36.893Z,16.43
2023-06-04T08:06:41.106Z,16.47
2023-06-04T08:08:47.067Z,16.44
2023-06-04T08:10:51.651Z,16.56
2023-06-04T08:12:53.771Z,16.52
2023-06-04T08:14:58.435Z,16.47
2023-06-04T08:17:00.682Z,16.65
2023-06-04T08:19:02.826Z,16.68
2023-06-04T08:21:05.075Z,16.77
2023-06-04T08:23:07.368Z,16.84
2023-06-04T08:25:11.069Z,16.92
2023-06-04T08:27:13.491Z,17.00
2023-06-04T08:29:15.684Z,17.03
2023-06-04T08:31:18.207Z,17.12
2023-06-04T08:33:20.352Z,17.16
2023-06-04T08:35:22.542Z,17.17
2023-06-04T08:37:25.904Z,17.29
2023-06-04T08:39:28.219Z,17.27
2023-06-04T08:41:36.203Z,17.37
2023-06-04T08:43:40.826Z,17.28
2023-06-04T08:45:46.128Z,17.45
2023-06-04T08:47:52.402Z,17.56
2023-06-04T08:50:00.296Z,17.64
2023-06-04T08:52:02.736Z,17.73
2023-06-04T08:54:06.957Z,17.77
2023-06-04T08:56:09.627Z,17.86
2023-06-04T08:58:14.112Z,17.93
2023-06-04T09:00:17.997Z,18.06
2023-06-04T09:02:20.188Z,18.05
2023-06-04T09:04:22.634Z,18.16
2023-06-04T09:06:27.348Z,18.28
2023-06-04T09:08:33.449Z,18.43
2023-06-04T09:10:37.651Z,18.58
2023-06-04T09:12:46.114Z,18.67
2023-06-04T09:14:49.341Z,18.66
2023-06-04T09:16:53.460Z,18.74
2023-06-04T09:18:57.282Z,18.94
2023-06-04T09:21:06.799Z,18.94
2023-06-04T09:23:14.102Z,19.17
2023-06-04T09:25:22.903Z,19.37
2023-06-04T09:27:27.041Z,19.50
2023-06-04T09:29:29.131Z,19.64
2023-06-04T09:31:38.073Z,19.79
2023-06-04T09:33:46.847Z,19.91
2023-06-04T09:35:55.773Z,19.80
2023-06-04T09:37:58.762Z,19.98
2023-06-04T09:40:01.849Z,20.03
2023-06-04T09:42:04.439Z,20.08
2023-06-04T09:44:07.280Z,20.21
2023-06-04T09:46:12.600Z,20.23
2023-06-04T09:48:24.126Z,20.37
2023-06-04T09:50:28.339Z,20.56
2023-06-04T09:52:37.506Z,20.62
2023-06-04T09:54:40.682Z,20.66
2023-06-04T09:56:46.316Z,20.75
2023-06-04T09:58:51.568Z,20.95
2023-06-04T10:00:57.069Z,21.01
2023-06-04T10:03:02.582Z,21.22
2023-06-04T10:05:06.721Z,21.36
2023-06-04T10:07:11.830Z,21.39
2023-06-04T10:09:15.591Z,21.45
2023-06-04T10:11:27.277Z,21.64
2023-06-04T10:13:32.696Z,21.76
2023-06-04T10:15:37.493Z,21.96
2023-06-04T10:17:40.569Z,22.08
2023-06-04T10:19:46.105Z,22.16
2023-06-04T10:21:51.096Z,22.29
2023-06-04T10:23:53.527Z,22.40
2023-06-04T10:25:59.106Z,22.57
2023-06-04T10:28:02.387Z,22.57
2023-06-04T10:30:06.341Z,22.66
2023-06-04T10:32:08.852Z,22.82
2023-06-04T10:34:11.214Z,22.91
2023-06-04T10:36:18.084Z,23.01
2023-06-04T10:38:21.968Z,23.17
2023-06-04T10:40:34.591Z,23.36
2023-06-04T10:42:41.011Z,23.33
2023-06-04T10:44:47.840Z,23.42
2023-06-04T10:46:50.339Z,23.44
2023-06-04T10:48:53.813Z,23.44
2023-06-04T10:50:55.955Z,23.58
2023-06-04T10:52:59.699Z,23.61
2023-06-04T10:55:06.285Z,23.66
2023-06-04T10:57:12.692Z,23.75
2023-06-04T10:59:16.731Z,23.97
2023-06-04T11:01:27.994Z,24.16
2023-06-04T11:03:37.303Z,23.98
2023-06-04T11:05:41.283Z,24.09
2023-06-04T11:07:46.428Z,24.06
2023-06-04T11:09:50.910Z,24.07
2023-06-04T11:11:59.301Z,24.16
2023-06-04T11:14:07.907Z,24.43
2023-06-04T11:16:19.899Z,24.56
2023-06-04T11:18:23.208Z,24.61
2023-06-04T11:20:25.908Z,24.63
2023-06-04T11:22:28.108Z,24.65
2023-06-04T11:24:31.337Z,24.79
2023-06-04T11:26:36.345Z,24.84
2023-06-04T11:28:41.564Z,24.98
2023-06-04T11:30:43.649Z,25.14
2023-06-04T11:32:45.883Z,25.21
2023-06-04T11:34:47.993Z,25.29
2023-06-04T11:36:51.015Z,25.33
2023-06-04T11:38:59.474Z,25.36
2023-06-04T11:41:06.321Z,25.33
2023-06-04T11:43:12.287Z,25.48
2023-06-04T11:45:16.210Z,25.56
2023-06-04T11:47:18.637Z,25.45
2023-06-04T11:49:21.790Z,25.65
2023-06-04T11:51:24.569Z,25.78
2023-06-04T11:53:30.010Z,25.76
2023-06-04T11:55:33.669Z,25.71
2023-06-04T11:57:36.236Z,25.84
2023-06-04T11:59:38.598Z,25.95
2023-06-04T12:01:42.578Z,26.03
2023-06-04T12:03:44.884Z,25.93
2023-06-04T12:05:47.161Z,25.92
2023-06-04T12:07:52.048Z,26.01
2023-06-04T12:09:54.493Z,26.21
2023-06-04T12:12:01.166Z,26.23
2023-06-04T12:14:07.422Z,26.33
2023-06-04T12:16:09.642Z,26.44
2023-06-04T12:18:12.264Z,26.60
2023-06-04T12:20:14.970Z,26.50
2023-06-04T12:22:17.118Z,26.58
2023-06-04T12:24:19.412Z,26.52
2023-06-04T12:26:29.930Z,26.80
2023-06-04T12:28:32.078Z,26.56
2023-06-04T12:30:38.344Z,26.44
2023-06-04T12:32:41.024Z,26.71
2023-06-04T12:34:43.228Z,26.79
2023-06-04T12:36:45.852Z,26.86
2023-06-04T12:38:50.976Z,27.01
2023-06-04T12:40:53.163Z,27.02
2023-06-04T12:42:55.572Z,27.19
2023-06-04T12:44:57.751Z,27.11
2023-06-04T12:47:00.011Z,27.08
2023-06-04T12:49:02.497Z,27.31
2023-06-04T12:51:04.612Z,27.37
2023-06-04T12:53:06.743Z,27.22
2023-06-04T12:55:11.827Z,27.45
2023-06-04T12:57:14.097Z,27.31
2023-06-04T12:59:16.375Z,27.29
2023-06-04T13:01:18.682Z,27.60
2023-06-04T13:03:21.141Z,27.65
2023-06-04T13:05:23.289Z,27.72
2023-06-04T13:07:28.159Z,27.82
2023-06-04T13:09:31.899Z,27.90
2023-06-04T13:11:34.499Z,27.94
2023-06-04T13:13:37.270Z,28.12
2023-06-04T13:15:39.494Z,28.21
2023-06-04T13:17:41.647Z,28.30
2023-06-04T13:19:43.937Z,28.09
2023-06-04T13:21:46.037Z,28.29
2023-06-04T13:23:50.113Z,28.37
2023-06-04T13:25:53.280Z,28.41
2023-06-04T13:27:58.913Z,28.43
2023-06-04T13:30:01.438Z,28.53
2023-06-04T13:32:06.211Z,28.62
2023-06-04T13:34:22.889Z,28.83
2023-06-04T13:36:28.831Z,28.85
2023-06-04T13:38:31.288Z,28.77
2023-06-04T13:40:36.248Z,28.99
2023-06-04T13:42:38.462Z,28.87
2023-06-04T13:44:40.677Z,28.70
2023-06-04T13:46:43.738Z,28.99
2023-06-04T13:48:46.299Z,29.01
2023-06-04T13:50:48.609Z,29.17
2023-06-04T13:52:51.156Z,29.23
2023-06-04T13:54:53.361Z,29.30
2023-06-04T13:56:56.480Z,29.29
2023-06-04T13:58:58.593Z,29.57
2023-06-04T14:01:00.808Z,29.59
2023-06-04T14:03:03.115Z,29.80
2023-06-04T14:05:08.031Z,29.85
2023-06-04T14:07:10.212Z,29.46
2023-06-04T14:09:13.988Z,29.98
2023-06-04T14:11:16.340Z,29.97
2023-06-04T14:13:21.400Z,30.08
2023-06-04T14:15:23.845Z,30.30
2023-06-04T14:17:26.066Z,29.88
2023-06-04T14:19:28.236Z,29.97
2023-06-04T14:21:30.488Z,30.08
2023-06-04T14:23:32.741Z,29.54
2023-06-04T14:25:37.721Z,29.49
2023-06-04T14:27:39.930Z,29.79
2023-06-04T14:29:42.059Z,30.22
2023-06-04T14:31:46.812Z,30.23
2023-06-04T14:33:49.386Z,30.57
2023-06-04T14:35:51.706Z,30.38
2023-06-04T14:37:53.918Z,30.54
2023-06-04T14:39:56.280Z,30.34
2023-06-04T14:41:58.497Z,30.05
2023-06-04T14:44:00.900Z,30.06
2023-06-04T14:46:03.264Z,30.00
2023-06-04T14:48:14.749Z,29.57
2023-06-04T14:50:19.748Z,30.28
2023-06-04T14:52:24.798Z,30.30
2023-06-04T14:54:26.995Z,29.93
2023-06-04T14:56:29.962Z,30.46
2023-06-04T14:58:32.458Z,30.27
2023-06-04T15:00:37.116Z,30.60
2023-06-04T15:02:39.343Z,30.05
2023-06-04T15:04:45.418Z,29.70
2023-06-04T15:06:50.669Z,30.39
2023-06-04T15:08:55.786Z,30.45
2023-06-04T15:11:00.190Z,30.61
2023-06-04T15:13:02.480Z,30.82
2023-06-04T15:15:06.902Z,30.56
2023-06-04T15:17:09.368Z,30.87
2023-06-04T15:19:11.579Z,30.89
2023-06-04T15:21:13.827Z,30.97
2023-06-04T15:23:16.692Z,30.78
2023-06-04T15:25:18.785Z,31.02
2023-06-04T15:27:21.241Z,30.22
2023-06-04T15:29:23.431Z,30.46
2023-06-04T15:31:25.645Z,29.54
2023-06-04T15:33:27.800Z,29.31
2023-06-04T15:35:30.684Z,29.39
2023-06-04T15:37:32.961Z,29.70
2023-06-04T15:39:35.096Z,29.87
2023-06-04T15:41:37.219Z,30.34
2023-06-04T15:43:39.442Z,30.04
2023-06-04T15:45:41.889Z,29.70
2023-06-04T15:47:44.071Z,30.15
2023-06-04T15:49:48.565Z,29.96
2023-06-04T15:51:50.766Z,29.99
2023-06-04T15:53:53.072Z,29.27
2023-06-04T15:55:55.322Z,29.94
2023-06-04T15:57:57.415Z,29.97
2023-06-04T16:00:02.090Z,30.26
2023-06-04T16:02:04.538Z,30.05
2023-06-04T16:04:06.747Z,29.86
2023-06-04T16:06:09.264Z,29.82
2023-06-04T16:08:11.752Z,29.97
2023-06-04T16:10:13.892Z,30.13
2023-06-04T16:12:16.455Z,29.86
2023-06-04T16:14:18.635Z,29.95
2023-06-04T16:16:20.855Z,29.08
2023-06-04T16:18:23.592Z,29.30
2023-06-04T16:20:25.697Z,29.37
2023-06-04T16:22:27.741Z,29.15
2023-06-04T16:24:30.023Z,28.99
2023-06-04T16:26:32.409Z,29.08
2023-06-04T16:28:34.652Z,28.92
2023-06-04T16:30:37.235Z,28.77
2023-06-04T16:32:42.682Z,28.93
2023-06-04T16:34:47.865Z,28.50
2023-06-04T16:36:50.047Z,28.14
2023-06-04T16:38:52.882Z,27.69
2023-06-04T16:40:57.219Z,27.45
2023-06-04T16:42:59.452Z,27.23
2023-06-04T16:45:01.745Z,27.07
2023-06-04T16:47:04.289Z,26.90
2023-06-04T16:49:06.651Z,26.82
2023-06-04T16:51:08.758Z,26.76
2023-06-04T16:53:11.501Z,27.00
2023-06-04T16:55:17.528Z,26.56
2023-06-04T16:57:22.586Z,26.42
2023-06-04T16:59:28.238Z,26.34
2023-06-04T17:01:30.442Z,26.41
2023-06-04T17:03:32.839Z,26.42
2023-06-04T17:05:35.092Z,26.48
2023-06-04T17:07:37.246Z,26.62
2023-06-04T17:09:39.582Z,26.52
2023-06-04T17:11:41.675Z,26.45
2023-06-04T17:13:43.942Z,26.39
2023-06-04T17:15:48.493Z,26.35
2023-06-04T17:17:51.443Z,26.09
2023-06-04T17:19:53.761Z,26.25
2023-06-04T17:21:56.045Z,25.96
2023-06-04T17:24:01.254Z,25.85
2023-06-04T17:26:03.764Z,25.92
2023-06-04T17:28:05.948Z,25.97
2023-06-04T17:30:08.900Z,25.59
2023-06-04T17:32:12.763Z,25.76
2023-06-04T17:34:15.015Z,25.50
2023-06-04T17:36:17.581Z,25.36
2023-06-04T17:38:19.797Z,25.47
2023-06-04T17:40:23.116Z,25.43
2023-06-04T17:42:26.214Z,25.52
2023-06-04T17:44:28.541Z,25.41
2023-06-04T17:46:30.929Z,25.38
2023-06-04T17:48:33.202Z,25.22
2023-06-04T17:50:35.344Z,25.22
2023-06-04T17:52:37.978Z,24.97
2023-06-04T17:54:40.222Z,25.22
2023-06-04T17:56:42.532Z,24.86
2023-06-04T17:58:44.722Z,24.88
2023-06-04T18:00:46.851Z,24.87
2023-06-04T18:02:49.234Z,24.69
2023-06-04T18:04:52.540Z,24.64
2023-06-04T18:06:54.687Z,24.51
2023-06-04T18:08:57.235Z,24.13
2023-06-04T18:10:59.982Z,23.80
2023-06-04T18:13:02.225Z,23.72
2023-06-04T18:15:05.567Z,23.87
2023-06-04T18:17:07.733Z,23.36
2023-06-04T18:19:10.701Z,23.32
2023-06-04T18:21:13.326Z,23.17
2023-06-04T18:23:15.530Z,23.02
2023-06-04T18:25:17.849Z,22.61
2023-06-04T18:27:22.447Z,22.59
2023-06-04T18:29:24.683Z,22.78
2023-06-04T18:31:27.104Z,22.84
2023-06-04T18:33:29.348Z,22.91
2023-06-04T18:35:33.400Z,22.80
2023-06-04T18:37:35.647Z,22.79
2023-06-04T18:39:37.830Z,22.56
2023-06-04T18:41:39.884Z,22.51
2023-06-04T18:43:42.095Z,22.28
2023-06-04T18:45:44.382Z,22.09
2023-06-04T18:47:46.716Z,22.22
2023-06-04T18:49:48.973Z,21.97
2023-06-04T18:51:52.183Z,21.94
2023-06-04T18:53:54.314Z,21.70
2023-06-04T18:55:58.523Z,21.41
2023-06-04T18:58:00.840Z,21.49
2023-06-04T19:00:08.721Z,21.27
2023-06-04T19:02:11.226Z,21.56
2023-06-04T19:04:14.514Z,21.46
2023-06-04T19:06:16.802Z,21.58
2023-06-04T19:08:21.972Z,21.33
2023-06-04T19:10:24.148Z,21.08
2023-06-04T19:12:27.607Z,21.21
2023-06-04T19:14:29.789Z,21.14
2023-06-04T19:16:31.890Z,20.94
2023-06-04T19:18:33.992Z,21.06
2023-06-04T19:20:36.090Z,20.78
2023-06-04T19:22:38.219Z,20.93
2023-06-04T19:24:42.521Z,20.94
2023-06-04T19:26:46.650Z,20.91
2023-06-04T19:28:48.694Z,20.55
2023-06-04T19:30:52.856Z,20.65
2023-06-04T19:32:55.031Z,20.72
2023-06-04T19:34:57.346Z,20.51
2023-06-04T19:36:59.436Z,20.62
2023-06-04T19:39:01.674Z,20.33
2023-06-04T19:41:03.763Z,20.40
2023-06-04T19:43:05.964Z,20.38
2023-06-04T19:45:10.839Z,20.57
2023-06-04T19:47:13.085Z,20.33
2023-06-04T19:49:15.816Z,20.55
2023-06-04T19:51:17.919Z,20.31
2023-06-04T19:53:20.187Z,20.12
2023-06-04T19:55:25.401Z,20.01
2023-06-04T19:57:27.630Z,20.12
2023-06-04T19:59:30.945Z,19.99
2023-06-04T20:01:34.490Z,19.93
2023-06-04T20:03:37.207Z,19.95
2023-06-04T20:05:39.417Z,19.96
2023-06-04T20:07:41.553Z,20.00
2023-06-04T20:09:43.759Z,20.03
2023-06-04T20:11:46.093Z,20.19
2023-06-04T20:13:48.424Z,20.03
2023-06-04T20:15:50.730Z,20.11
2023-06-04T20:17:53.004Z,19.71
2023-06-04T20:19:56.089Z,19.77
2023-06-04T20:21:58.238Z,19.68
2023-06-04T20:24:00.642Z,19.57
2023-06-04T20:26:02.818Z,19.74
2023-06-04T20:28:05.047Z,19.48
2023-06-04T20:30:08.233Z,19.74
2023-06-04T20:32:10.819Z,19.73
2023-06-04T20:34:12.898Z,19.45
2023-06-04T20:36:15.733Z,19.61
2023-06-04T20:38:17.828Z,19.64
2023-06-04T20:40:19.946Z,19.68
2023-06-04T20:42:22.330Z,19.64
2023-06-04T20:44:24.580Z,19.54
2023-06-04T20:46:26.844Z,19.57
2023-06-04T20:48:29.194Z,19.53
2023-06-04T20:50:31.871Z,19.64
2023-06-04T20:52:33.864Z,19.76
2023-06-04T20:54:36.734Z,19.76
2023-06-04T20:56:38.809Z,19.75
2023-06-04T20:58:40.879Z,19.53
2023-06-04T21:00:43.047Z,19.70
2023-06-04T21:02:45.313Z,19.79
2023-06-04T21:04:47.724Z,19.54
2023-06-04T21:06:50.403Z,19.52
2023-06-04T21:08:52.501Z,19.51
2023-06-04T21:10:54.679Z,19.42
2023-06-04T21:12:56.996Z,19.43
2023-06-04T21:14:59.164Z,19.43
2023-06-04T21:17:01.294Z,19.39
2023-06-04T21:19:03.432Z,18.97
2023-06-04T21:21:05.541Z,19.13
2023-06-04T21:23:07.764Z,19.08
2023-06-04T21:25:10.732Z,19.05
2023-06-04T21:27:12.963Z,19.15
2023-06-04T21:29:15.157Z,19.11
2023-06-04T21:31:17.398Z,19.18
2023-06-04T21:33:21.785Z,19.16
2023-06-04T21:35:23.892Z,19.01
2023-06-04T21:37:26.246Z,18.97
2023-06-04T21:39:28.622Z,18.90
2023-06-04T21:41:30.836Z,18.90
2023-06-04T21:43:32.946Z,18.49
2023-06-04T21:45:35.613Z,18.50
2023-06-04T21:47:38.755Z,18.57
2023-06-04T21:49:40.960Z,18.49
2023-06-04T21:51:45.314Z,18.64
2023-06-04T21:53:47.562Z,18.50
2023-06-04T21:55:50.176Z,18.49
2023-06-04T21:57:52.708Z,18.39
2023-06-04T21:59:54.981Z,18.45
2023-06-04T22:01:58.288Z,18.47
2023-06-04T22:04:00.555Z,18.20
2023-06-04T22:06:02.783Z,18.23
2023-06-04T22:08:05.124Z,18.39
2023-06-04T22:10:08.545Z,18.37
2023-06-04T22:12:12.163Z,18.26
2023-06-04T22:14:14.538Z,18.21
2023-06-04T22:16:16.942Z,18.22
2023-06-04T22:18:21.473Z,18.29
2023-06-04T22:20:23.751Z,18.21
2023-06-04T22:22:25.988Z,18.20
2023-06-04T22:24:28.156Z,18.17
2023-06-04T22:28:38.973Z,18.14
2023-06-04T22:30:41.067Z,18.28
2023-06-04T22:32:43.225Z,18.16
2023-06-04T22:34:45.377Z,18.12
2023-06-04T22:36:47.686Z,18.13
2023-06-04T22:38:49.906Z,18.02
2023-06-04T22:40:52.172Z,17.98
2023-06-04T22:42:55.896Z,17.85
2023-06-04T22:44:57.994Z,17.72
2023-06-04T22:47:00.399Z,17.56
2023-06-04T22:49:02.765Z,17.60
2023-06-04T22:51:06.383Z,17.54
2023-06-04T22:53:09.419Z,17.50
2023-06-04T22:55:11.845Z,17.49
2023-06-04T22:57:13.962Z,17.29
2023-06-04T22:59:16.248Z,17.25
2023-06-04T23:01:18.502Z,17.23
2023-06-04T23:03:21.003Z,17.05
2023-06-04T23:05:23.539Z,17.11
2023-06-04T23:07:25.735Z,17.15
2023-06-04T23:09:27.787Z,17.06
2023-06-04T23:11:29.932Z,17.17
2023-06-04T23:13:32.034Z,17.07
2023-06-04T23:15:34.644Z,16.92
2023-06-04T23:17:37.543Z,16.72
2023-06-04T23:19:39.730Z,16.66
2023-06-04T23:21:41.910Z,16.50
2023-06-04T23:23:44.118Z,16.32
2023-06-04T23:25:46.268Z,16.29
2023-06-04T23:27:48.434Z,15.96
2023-06-04T23:29:51.045Z,16.26
2023-06-04T23:31:53.218Z,16.32
2023-06-04T23:33:57.392Z,16.10
2023-06-04T23:35:59.528Z,16.33
2023-06-04T23:38:02.049Z,16.11
2023-06-04T23:40:07.296Z,16.29
2023-06-04T23:42:09.535Z,16.12
2023-06-04T23:44:11.634Z,16.06
2023-06-04T23:46:13.882Z,15.95
2023-06-04T23:48:17.134Z,16.01
2023-06-04T23:50:19.315Z,15.86
2023-06-04T23:52:22.249Z,15.71
2023-06-04T23:54:24.377Z,15.76
2023-06-04T23:56:29.484Z,15.69
2023-06-04T23:58:31.777Z,15.75
